createdAt,value
2018-11-05T00:01:55.343Z,99.90
2018-11-05T00:04:30.812Z,99.90
2018-11-05T00:07:06.765Z,99.90
2018-11-05T00:09:42.176Z,99.90
2018-11-05T00:12:17.272Z,99.90
2018-11-05T00:14:52.477Z,99.90
2018-11-05T00:17:27.899Z,99.90
2018-11-05T00:20:02.636Z,99.90
2018-11-05T00:22:37.592Z,99.90
2018-11-05T00:25:13.525Z,99.90
2018-11-05T00:27:56.332Z,99.90
2018-11-05T00:30:31.673Z,99.90
2018-11-05T00:33:06.343Z,99.90
2018-11-05T00:35:41.628Z,99.90
2018-11-05T00:38:16.469Z,99.90
2018-11-05T00:40:51.203Z,99.90
2018-11-05T00:43:26.417Z,99.90
2018-11-05T02:37:55.785Z,99.90
2018-11-05T02:40:30.948Z,99.90
2018-11-05T02:43:06.408Z,99.90
2018-11-05T02:45:41.236Z,99.90
2018-11-05T02:48:16.598Z,99.90
2018-11-05T02:50:51.507Z,99.90
2018-11-05T02:53:26.598Z,99.90
2018-11-05T02:56:01.980Z,99.90
2018-11-05T02:58:37.335Z,99.90
2018-11-05T03:01:12.228Z,99.90
2018-11-05T03:03:46.928Z,99.90
2018-11-05T03:06:22.502Z,99.90
2018-11-05T03:08:58.078Z,99.90
2018-11-05T03:11:32.869Z,99.90
2018-11-05T03:14:08.865Z,99.90
2018-11-05T03:16:44.087Z,99.90
2018-11-05T03:19:18.890Z,99.90
2018-11-05T03:21:54.445Z,99.90
2018-11-05T03:24:29.769Z,99.90
2018-11-05T03:27:04.953Z,99.90
2018-11-05T03:29:40.361Z,99.90
2018-11-05T03:32:15.321Z,99.90
2018-11-05T03:34:50.083Z,99.90
2018-11-05T03:37:25.275Z,99.90
2018-11-05T03:40:00.285Z,99.90
2018-11-05T03:42:36.173Z,99.90
2018-11-05T03:45:12.897Z,99.90
2018-11-05T03:47:47.805Z,99.90
2018-11-05T03:50:22.857Z,99.90
2018-11-05T03:52:58.008Z,99.90
2018-11-05T03:55:33.733Z,99.90
2018-11-05T03:58:09.320Z,99.90
2018-11-05T04:00:44.128Z,99.90
2018-11-05T04:03:19.077Z,99.70
2018-11-05T04:05:54.547Z,99.70
2018-11-05T04:08:34.702Z,99.90
2018-11-05T04:11:10.546Z,99.90
2018-11-05T04:13:45.691Z,99.90
2018-11-05T05:18:49.232Z,99.90
2018-11-05T05:21:24.216Z,99.90
2018-11-05T05:24:00.544Z,99.90
2018-11-05T05:26:35.346Z,99.90
2018-11-05T05:29:11.204Z,99.90
2018-11-05T05:31:46.867Z,99.90
2018-11-05T05:34:27.916Z,99.90
2018-11-05T05:37:03.494Z,99.90
2018-11-05T05:39:39.006Z,99.80
2018-11-05T05:42:14.628Z,99.80
2018-11-05T05:44:49.513Z,99.80
2018-11-05T05:47:24.425Z,99.80
2018-11-05T05:50:00.108Z,99.90
2018-11-05T05:53:59.675Z,99.90
2018-11-05T05:56:34.440Z,99.90
2018-11-05T05:59:09.671Z,99.90
2018-11-05T06:01:44.370Z,99.90
2018-11-05T06:04:19.742Z,99.90
2018-11-05T06:06:55.176Z,99.90
2018-11-05T06:26:58.076Z,99.90
2018-11-05T06:29:33.602Z,99.90
2018-11-05T06:32:08.602Z,99.90
2018-11-05T06:34:43.712Z,99.90
2018-11-05T06:37:19.147Z,99.90
2018-11-05T06:39:54.015Z,99.90
2018-11-05T06:42:29.312Z,99.90
2018-11-05T06:45:05.034Z,99.90
2018-11-05T06:47:41.463Z,99.90
2018-11-05T06:50:19.007Z,99.90
2018-11-05T06:52:53.391Z,99.90
2018-11-05T06:55:27.981Z,99.90
2018-11-05T06:58:03.171Z,99.90
2018-11-05T07:00:41.682Z,99.90
2018-11-05T07:03:16.299Z,99.90
2018-11-05T07:05:51.434Z,99.90
2018-11-05T07:08:34.422Z,99.90
2018-11-05T07:11:08.884Z,99.90
2018-11-05T07:13:43.520Z,99.90
2018-11-05T07:16:20.454Z,99.90
2018-11-05T07:18:55.849Z,99.90
2018-11-05T07:21:30.113Z,99.90
2018-11-05T07:24:05.576Z,99.90
2018-11-05T07:26:40.412Z,99.90
2018-11-05T07:29:15.591Z,99.90
2018-11-05T07:31:51.067Z,99.90
2018-11-05T07:34:25.674Z,99.90
2018-11-05T07:37:00.737Z,99.90
2018-11-05T07:39:35.133Z,99.90
2018-11-05T07:42:10.100Z,99.90
2018-11-05T07:44:45.635Z,99.90
2018-11-05T07:47:20.192Z,99.90
2018-11-05T07:49:54.863Z,99.90
2018-11-05T07:52:30.232Z,99.60
2018-11-05T07:55:05.315Z,99.70
2018-11-05T07:57:41.950Z,99.50
2018-11-05T08:00:22.504Z,99.30
2018-11-05T08:02:57.520Z,98.70
2018-11-05T08:05:32.752Z,99.00
2018-11-05T08:08:07.032Z,99.20
2018-11-05T08:10:42.194Z,98.90
2018-11-05T08:13:17.462Z,98.90
2018-11-05T08:15:51.907Z,98.90
2018-11-05T08:18:26.729Z,98.50
2018-11-05T08:21:01.279Z,98.30
2018-11-05T08:23:36.411Z,98.10
2018-11-05T08:26:11.760Z,97.90
2018-11-05T08:28:46.739Z,98.10
2018-11-05T08:31:22.264Z,97.70
2018-11-05T08:33:56.667Z,97.60
2018-11-05T08:36:31.590Z,97.60
2018-11-05T08:39:09.768Z,97.40
2018-11-05T08:41:44.892Z,97.30
2018-11-05T08:44:20.106Z,97.40
2018-11-05T08:46:54.738Z,97.40
2018-11-05T08:49:29.075Z,97.10
2018-11-05T08:52:03.469Z,97.00
2018-11-05T08:54:38.024Z,96.90
2018-11-05T08:57:13.215Z,96.30
2018-11-05T08:59:47.727Z,96.00
2018-11-05T09:02:22.852Z,95.70
2018-11-05T09:04:58.287Z,95.40
2018-11-05T09:07:33.324Z,95.50
2018-11-05T09:10:08.980Z,95.70
2018-11-05T09:12:43.676Z,95.40
2018-11-05T09:15:19.354Z,95.10
2018-11-05T09:17:54.295Z,95.40
2018-11-05T09:20:28.711Z,95.20
2018-11-05T09:23:03.755Z,95.30
2018-11-05T09:25:38.811Z,95.10
2018-11-05T09:28:13.656Z,95.20
2018-11-05T09:30:48.650Z,95.30
2018-11-05T09:33:24.308Z,95.30
2018-11-05T09:35:58.835Z,95.10
2018-11-05T09:38:33.795Z,94.90
2018-11-05T09:41:10.039Z,94.50
2018-11-05T09:43:51.516Z,95.20
2018-11-05T09:46:26.515Z,95.40
2018-11-05T09:49:01.518Z,94.80
2018-11-05T09:51:36.503Z,93.80
2018-11-05T09:54:14.467Z,93.60
2018-11-05T09:59:29.910Z,93.70
2018-11-05T10:02:04.975Z,93.90
2018-11-05T10:04:39.629Z,93.70
2018-11-05T10:07:14.915Z,93.50
2018-11-05T10:09:50.117Z,93.60
2018-11-05T10:12:24.572Z,93.60
2018-11-05T10:14:59.529Z,93.30
2018-11-05T10:17:34.465Z,93.20
2018-11-05T10:20:12.715Z,93.20
2018-11-05T10:22:47.971Z,93.30
2018-11-05T10:25:23.199Z,93.10
2018-11-05T10:28:03.060Z,93.40
2018-11-05T10:30:39.184Z,92.90
2018-11-05T10:33:13.609Z,93.10
2018-11-05T10:35:54.499Z,92.60
2018-11-05T10:38:29.799Z,93.10
2018-11-05T10:41:04.875Z,92.60
2018-11-05T10:46:20.774Z,92.50
2018-11-05T10:48:55.130Z,92.40
2018-11-05T10:51:29.911Z,92.20
2018-11-05T10:54:04.556Z,92.20
2018-11-05T10:56:39.939Z,92.50
2018-11-05T10:59:15.172Z,92.30
2018-11-05T11:01:55.121Z,92.00
2018-11-05T11:04:31.940Z,92.10
2018-11-05T11:07:06.991Z,92.00
2018-11-05T11:09:42.294Z,92.00
2018-11-05T11:12:16.698Z,91.80
2018-11-05T11:14:51.032Z,92.00
2018-11-05T11:17:26.026Z,91.90
2018-11-05T11:20:01.008Z,91.70
2018-11-05T11:22:36.690Z,91.90
2018-11-05T11:25:12.255Z,91.70
2018-11-05T11:30:27.332Z,91.80
2018-11-05T11:33:02.471Z,91.60
2018-11-05T11:35:37.371Z,91.50
2018-11-05T11:38:12.320Z,91.10
2018-11-05T11:40:46.603Z,90.90
2018-11-05T11:43:21.641Z,90.80
2018-11-05T11:45:56.791Z,90.80
2018-11-05T11:48:31.398Z,90.40
2018-11-05T11:51:06.635Z,90.10
2018-11-05T11:53:42.235Z,90.10
2018-11-05T11:56:16.574Z,90.20
2018-11-05T11:58:51.592Z,90.00
2018-11-05T12:01:26.173Z,90.50
2018-11-05T12:04:01.286Z,91.00
2018-11-05T12:06:36.545Z,91.00
2018-11-05T12:09:11.797Z,89.90
2018-11-05T12:11:46.327Z,88.40
2018-11-05T12:14:20.726Z,86.80
2018-11-05T12:16:55.919Z,84.50
2018-11-05T12:19:30.202Z,82.10
2018-11-05T12:22:04.587Z,81.60
2018-11-05T12:24:39.737Z,80.70
2018-11-05T12:27:14.817Z,78.30
2018-11-05T12:29:49.970Z,76.90
2018-11-05T12:32:25.209Z,75.10
2018-11-05T12:34:59.694Z,73.40
2018-11-05T12:37:34.899Z,72.30
2018-11-05T12:40:11.303Z,71.50
2018-11-05T12:42:47.813Z,70.50
2018-11-05T12:45:23.020Z,70.80
2018-11-05T12:47:57.479Z,69.50
2018-11-05T12:50:31.968Z,68.90
2018-11-05T12:53:06.438Z,67.90
2018-11-05T12:55:40.769Z,67.40
2018-11-05T12:58:15.743Z,67.10
2018-11-05T13:00:50.181Z,66.20
2018-11-05T13:03:24.440Z,66.90
2018-11-05T13:05:59.678Z,67.60
2018-11-05T13:08:36.960Z,67.40
2018-11-05T13:11:11.399Z,68.00
2018-11-05T13:13:45.803Z,67.80
2018-11-05T13:16:33.601Z,67.90
2018-11-05T13:19:07.990Z,67.00
2018-11-05T13:21:42.283Z,67.70
2018-11-05T13:24:18.056Z,66.90
2018-11-05T13:26:52.540Z,65.80
2018-11-05T13:29:27.912Z,65.40
2018-11-05T13:32:03.444Z,64.70
2018-11-05T13:34:37.986Z,65.10
2018-11-05T13:37:13.410Z,64.00
2018-11-05T13:39:48.633Z,64.70
2018-11-05T13:42:24.027Z,65.40
2018-11-05T13:44:59.389Z,65.00
2018-11-05T13:47:34.257Z,63.60
2018-11-05T13:50:09.778Z,63.00
2018-11-05T13:52:43.964Z,61.90
2018-11-05T13:55:18.176Z,62.30
2018-11-05T13:57:53.098Z,61.20
2018-11-05T14:00:28.248Z,60.30
2018-11-05T14:03:02.550Z,61.40
2018-11-05T14:05:37.864Z,61.70
2018-11-05T14:08:12.433Z,62.60
2018-11-05T14:10:47.464Z,63.40
2018-11-05T14:13:21.893Z,64.60
2018-11-05T14:15:56.187Z,65.00
2018-11-05T14:18:31.476Z,64.70
2018-11-05T14:21:05.831Z,64.80
2018-11-05T14:23:40.820Z,65.20
2018-11-05T14:26:15.946Z,65.00
2018-11-05T14:28:51.451Z,65.50
2018-11-05T14:31:27.393Z,65.30
2018-11-05T14:34:02.837Z,64.90
2018-11-05T14:39:17.963Z,65.00
2018-11-05T14:41:52.364Z,65.00
2018-11-05T14:44:27.578Z,64.60
2018-11-05T14:47:02.086Z,64.70
2018-11-05T14:49:36.576Z,65.30
2018-11-05T14:52:10.841Z,65.70
2018-11-05T14:54:45.198Z,66.10
2018-11-05T14:57:20.629Z,66.50
2018-11-05T14:59:55.029Z,67.00
2018-11-05T15:02:34.606Z,67.70
2018-11-05T15:05:11.041Z,69.10
2018-11-05T15:07:46.738Z,70.50
2018-11-05T15:10:23.499Z,70.30
2018-11-05T15:12:57.805Z,70.40
2018-11-05T15:15:32.815Z,70.80
2018-11-05T15:18:08.027Z,70.90
2018-11-05T15:20:42.448Z,70.60
2018-11-05T15:23:17.843Z,71.30
2018-11-05T15:25:53.159Z,71.40
2018-11-05T15:28:28.623Z,71.70
2018-11-05T15:31:03.640Z,71.60
2018-11-05T15:33:44.476Z,71.90
2018-11-05T15:36:18.879Z,72.20
2018-11-05T15:38:54.142Z,72.10
2018-11-05T15:41:28.623Z,72.40
2018-11-05T15:44:03.850Z,72.70
2018-11-05T15:46:38.351Z,73.20
2018-11-05T15:49:12.779Z,73.50
2018-11-05T15:51:47.430Z,73.90
2018-11-05T15:54:21.749Z,74.40
2018-11-05T15:57:03.227Z,74.80
2018-11-05T15:59:37.841Z,75.20
2018-11-05T16:02:13.367Z,75.30
2018-11-05T16:04:47.848Z,75.60
2018-11-05T16:07:23.016Z,75.80
2018-11-05T16:09:58.407Z,75.90
2018-11-05T16:12:33.047Z,76.10
2018-11-05T16:15:08.725Z,77.00
2018-11-05T16:17:43.867Z,77.60
2018-11-05T16:20:20.628Z,78.40
2018-11-05T16:22:55.564Z,78.80
2018-11-05T16:25:31.179Z,78.80
2018-11-05T16:28:07.267Z,78.80
2018-11-05T16:30:42.267Z,79.10
2018-11-05T16:33:16.712Z,79.60
2018-11-05T16:35:51.081Z,80.30
2018-11-05T16:38:26.265Z,80.70
2018-11-05T16:41:00.579Z,80.50
2018-11-05T16:43:35.556Z,80.70
2018-11-05T16:46:09.950Z,81.00
2018-11-05T16:48:44.239Z,81.10
2018-11-05T16:51:18.763Z,81.10
2018-11-05T16:53:53.435Z,81.30
2018-11-05T16:56:28.252Z,81.40
2018-11-05T16:59:03.806Z,81.80
2018-11-05T17:01:38.802Z,82.10
2018-11-05T17:04:12.847Z,82.30
2018-11-05T17:06:47.795Z,82.70
2018-11-05T17:09:22.920Z,82.70
2018-11-05T17:11:58.612Z,82.80
2018-11-05T17:14:33.043Z,83.30
2018-11-05T17:17:08.162Z,84.30
2018-11-05T17:19:50.715Z,84.50
2018-11-05T17:22:25.834Z,85.50
2018-11-05T17:25:01.380Z,85.50
2018-11-05T17:27:35.888Z,85.90
2018-11-05T17:30:13.227Z,85.90
2018-11-05T17:32:48.555Z,86.10
2018-11-05T17:35:23.386Z,87.10
2018-11-05T17:37:59.652Z,88.50
2018-11-05T17:40:34.064Z,90.20
2018-11-05T17:43:09.660Z,90.50
2018-11-05T17:45:44.016Z,90.50
2018-11-05T17:48:20.223Z,90.10
2018-11-05T17:50:54.738Z,89.80
2018-11-05T17:53:28.968Z,89.90
2018-11-05T17:56:03.418Z,90.10
2018-11-05T17:58:38.291Z,89.60
2018-11-05T18:01:12.947Z,89.10
2018-11-05T18:03:47.524Z,89.10
2018-11-05T18:06:23.087Z,89.30
2018-11-05T18:08:58.652Z,89.40
2018-11-05T18:11:39.116Z,89.40
2018-11-05T18:14:13.489Z,89.50
2018-11-05T18:16:49.621Z,89.70
2018-11-05T18:19:25.479Z,90.10
2018-11-05T18:22:00.972Z,90.10
2018-11-05T18:24:37.888Z,90.20
2018-11-05T18:27:12.301Z,90.40
2018-11-05T18:29:48.180Z,90.40
2018-11-05T18:32:24.938Z,90.40
2018-11-05T18:34:59.256Z,90.40
2018-11-05T18:37:35.824Z,90.50
2018-11-05T18:40:11.778Z,90.60
2018-11-05T18:42:47.900Z,90.70
2018-11-05T18:45:23.038Z,90.80
2018-11-05T18:47:57.489Z,90.80
2018-11-05T18:50:32.063Z,90.90
2018-11-05T18:53:06.355Z,91.10
2018-11-05T18:55:40.819Z,91.30
2018-11-05T18:58:16.737Z,91.50
2018-11-05T19:00:51.346Z,91.70
2018-11-05T19:03:25.878Z,92.00
2018-11-05T19:06:01.062Z,92.10
2018-11-05T19:08:39.972Z,92.10
2018-11-05T19:11:14.359Z,92.30
2018-11-05T19:13:49.715Z,92.40
2018-11-05T19:16:25.384Z,92.40
2018-11-05T19:19:00.576Z,92.50
2018-11-05T19:21:44.551Z,92.50
2018-11-05T19:24:35.279Z,92.60
2018-11-05T19:27:09.674Z,92.70
2018-11-05T19:29:45.245Z,92.90
2018-11-05T19:32:20.372Z,93.00
2018-11-05T19:34:54.876Z,93.00
2018-11-05T19:37:30.048Z,93.10
2018-11-05T19:40:05.387Z,93.10
2018-11-05T19:42:42.630Z,93.20
2018-11-05T19:45:17.859Z,93.40
2018-11-05T19:47:52.691Z,93.80
2018-11-05T19:50:27.171Z,93.90
2018-11-05T19:53:02.492Z,93.90
2018-11-05T19:55:36.861Z,93.90
2018-11-05T19:58:11.991Z,93.80
2018-11-05T20:00:48.485Z,93.90
2018-11-05T20:03:22.971Z,93.80
2018-11-05T20:05:59.824Z,93.80
2018-11-05T20:08:40.035Z,93.80
2018-11-05T20:11:15.410Z,93.90
2018-11-05T20:13:52.086Z,93.80
2018-11-05T20:16:28.248Z,93.90
2018-11-05T20:19:04.167Z,93.90
2018-11-05T20:21:41.628Z,93.90
2018-11-05T20:24:17.337Z,93.90
2018-11-05T20:26:52.571Z,93.80
2018-11-05T20:29:29.394Z,93.90
2018-11-05T20:32:05.177Z,93.90
2018-11-05T20:34:40.527Z,94.20
2018-11-05T20:37:16.976Z,94.20
2018-11-05T20:39:51.857Z,94.10
2018-11-05T20:42:29.317Z,94.10
2018-11-05T20:45:03.940Z,94.40
2018-11-05T20:47:40.531Z,94.30
2018-11-05T20:50:18.412Z,94.40
2018-11-05T20:52:53.775Z,94.50
2018-11-05T20:55:29.008Z,94.50
2018-11-05T20:58:05.117Z,94.60
2018-11-05T21:00:47.046Z,94.60
2018-11-05T21:03:22.068Z,94.70
2018-11-05T21:05:57.667Z,94.70
2018-11-05T21:08:40.087Z,94.80
2018-11-05T21:11:15.378Z,94.90
2018-11-05T21:13:50.558Z,94.90
2018-11-05T21:16:26.478Z,94.90
2018-11-05T21:19:02.383Z,95.00
2018-11-05T21:21:38.112Z,95.10
2018-11-05T21:24:12.807Z,95.00
2018-11-05T21:26:47.975Z,95.20
2018-11-05T21:29:22.996Z,95.10
2018-11-05T21:31:58.032Z,95.20
2018-11-05T21:34:33.736Z,95.10
2018-11-05T21:37:08.951Z,95.30
2018-11-05T21:39:43.387Z,95.50
2018-11-05T21:42:18.382Z,95.90
2018-11-05T21:44:52.902Z,95.70
2018-11-05T21:47:27.771Z,95.70
2018-11-05T21:50:03.342Z,95.70
2018-11-05T21:52:38.789Z,95.60
2018-11-05T21:55:13.186Z,95.60
2018-11-05T21:57:49.307Z,95.60
2018-11-05T22:00:24.826Z,95.70
2018-11-05T22:03:00.743Z,95.60
2018-11-05T22:05:36.215Z,95.70
2018-11-05T22:08:11.643Z,95.80
2018-11-05T22:10:46.885Z,95.60
2018-11-05T22:13:22.038Z,95.70
2018-11-05T22:15:56.392Z,95.70
2018-11-05T22:18:37.323Z,95.70
2018-11-05T22:21:12.320Z,95.60
2018-11-05T22:23:47.590Z,95.80
2018-11-05T22:26:22.555Z,95.70
2018-11-05T22:28:57.684Z,95.70
2018-11-05T22:31:32.836Z,95.70
2018-11-05T22:34:07.322Z,95.70
2018-11-05T22:36:49.797Z,95.70
2018-11-05T22:39:24.233Z,95.60
2018-11-05T22:42:07.380Z,95.60
2018-11-05T22:44:41.727Z,95.50
2018-11-05T22:47:16.002Z,95.50
2018-11-05T22:49:50.366Z,95.40
2018-11-05T22:52:24.643Z,95.60
2018-11-05T22:54:59.063Z,95.70
2018-11-05T22:57:34.058Z,95.90
2018-11-05T23:00:18.305Z,95.80
2018-11-05T23:02:59.167Z,95.70
2018-11-05T23:05:34.078Z,95.80
2018-11-05T23:08:08.327Z,96.10
2018-11-05T23:10:43.342Z,96.00
2018-11-05T23:13:18.512Z,95.90
2018-11-05T23:15:53.154Z,96.00
2018-11-05T23:18:28.272Z,96.20
2018-11-05T23:21:03.295Z,96.20
2018-11-05T23:23:39.050Z,96.10
2018-11-05T23:26:14.279Z,96.20
2018-11-05T23:28:49.439Z,96.10
2018-11-05T23:31:24.743Z,96.10
2018-11-05T23:33:59.067Z,96.00
2018-11-05T23:36:34.255Z,96.10
2018-11-05T23:39:10.259Z,96.00
2018-11-05T23:41:44.616Z,95.80
2018-11-05T23:44:19.674Z,95.90
2018-11-05T23:46:54.111Z,95.90
2018-11-05T23:49:28.516Z,96.00
2018-11-05T23:52:02.888Z,95.90
2018-11-05T23:54:37.200Z,95.90
2018-11-05T23:57:12.169Z,95.80
2018-11-05T23:59:46.638Z,95.90
